createdAt,value
2019-03-02T00:04:16.914Z,101385.02
2019-03-02T00:09:22.519Z,101384.27
2019-03-02T00:14:27.960Z,101388.67
2019-03-02T00:19:33.457Z,101381.06
2019-03-02T00:24:39.106Z,101376.26
2019-03-02T00:29:45.929Z,101370.81
2019-03-02T00:34:51.474Z,101364.02
2019-03-02T00:39:56.928Z,101358.20
2019-03-02T00:45:02.408Z,101352.27
2019-03-02T00:50:08.140Z,101357.59
2019-03-02T00:55:13.580Z,101348.67
2019-03-02T01:00:19.079Z,101339.63
2019-03-02T01:05:24.598Z,101339.67
2019-03-02T01:10:30.030Z,101341.12
2019-03-02T01:15:35.533Z,101332.00
2019-03-02T01:20:40.894Z,101331.52
2019-03-02T01:25:48.941Z,101328.95
2019-03-02T01:30:53.624Z,101319.24
2019-03-02T01:35:59.018Z,101311.20
2019-03-02T01:41:04.396Z,101310.81
2019-03-02T01:46:09.797Z,101300.59
2019-03-02T01:51:15.374Z,101294.19
2019-03-02T01:56:20.783Z,101288.53
2019-03-02T02:01:26.351Z,101289.59
2019-03-02T02:06:31.784Z,101283.76
2019-03-02T02:11:37.406Z,101274.31
2019-03-02T02:16:42.856Z,101274.09
2019-03-02T02:21:48.305Z,101268.90
2019-03-02T02:26:53.718Z,101265.20
2019-03-02T02:31:59.123Z,101266.63
2019-03-02T02:37:04.685Z,101258.08
2019-03-02T02:42:10.118Z,101256.30
2019-03-02T02:47:15.613Z,101253.20
2019-03-02T02:52:27.539Z,101246.33
2019-03-02T02:57:33.656Z,101241.88
2019-03-02T03:02:35.364Z,101245.70
2019-03-02T03:07:40.924Z,101236.93
2019-03-02T03:12:46.369Z,101238.50
2019-03-02T03:17:51.818Z,101229.25
2019-03-02T03:22:57.293Z,101220.33
2019-03-02T03:28:02.745Z,101221.91
2019-03-02T03:33:08.187Z,101216.25
2019-03-02T03:38:13.689Z,101221.52
2019-03-02T03:43:19.315Z,101212.81
2019-03-02T03:48:24.741Z,101210.04
2019-03-02T03:53:32.001Z,101205.05
2019-03-02T03:58:39.916Z,101211.45
2019-03-02T04:03:46.953Z,101199.91
2019-03-02T04:08:51.459Z,101202.54
2019-03-02T04:13:56.885Z,101202.34
2019-03-02T04:19:03.401Z,101196.34
2019-03-02T04:24:08.769Z,101194.05
2019-03-02T04:29:14.207Z,101196.13
2019-03-02T04:34:21.197Z,101187.97
2019-03-02T04:39:26.767Z,101184.84
2019-03-02T04:44:32.404Z,101176.52
2019-03-02T04:49:37.826Z,101174.43
2019-03-02T04:54:43.228Z,101177.33
2019-03-02T04:59:48.650Z,101177.33
2019-03-02T05:04:54.110Z,101178.26
2019-03-02T05:09:59.674Z,101176.46
2019-03-02T05:15:06.022Z,101175.63
2019-03-02T05:20:11.422Z,101163.28
2019-03-02T05:25:19.082Z,101157.52
2019-03-02T05:30:26.743Z,101154.11
2019-03-02T05:35:30.907Z,101149.05
2019-03-02T05:40:36.380Z,101142.83
2019-03-02T05:45:41.755Z,101142.89
2019-03-02T05:50:47.175Z,101137.27
2019-03-02T05:55:53.724Z,101138.45
2019-03-02T06:00:59.522Z,101133.07
2019-03-02T06:06:04.943Z,101134.23
2019-03-02T06:11:10.325Z,101131.13
2019-03-02T06:16:18.750Z,101134.67
2019-03-02T06:21:22.842Z,101137.97
2019-03-02T06:26:28.299Z,101144.29
2019-03-02T06:31:33.788Z,101137.55
2019-03-02T06:36:41.040Z,101126.36
2019-03-02T06:41:46.296Z,101116.16
2019-03-02T06:46:54.746Z,101117.30
2019-03-02T06:51:58.942Z,101113.10
2019-03-02T06:57:04.320Z,101104.20
2019-03-02T07:02:09.818Z,101093.23
2019-03-02T07:07:18.617Z,101096.81
2019-03-02T07:12:22.459Z,101109.11
2019-03-02T07:17:50.724Z,101105.03
2019-03-02T07:22:56.276Z,101108.94
2019-03-02T07:28:05.622Z,101106.70
2019-03-02T07:33:08.962Z,101098.95
2019-03-02T07:38:16.902Z,101108.50
2019-03-02T07:43:21.435Z,101110.80
2019-03-02T07:48:26.906Z,101108.92
2019-03-02T07:53:32.300Z,101113.91
2019-03-02T07:58:37.889Z,101113.27
2019-03-02T08:03:43.239Z,101119.20
2019-03-02T08:08:49.268Z,101121.03
2019-03-02T08:13:54.934Z,101119.63
2019-03-02T08:19:03.915Z,101115.08
2019-03-02T08:24:08.701Z,101120.16
2019-03-02T08:29:14.105Z,101123.41
2019-03-02T08:34:19.637Z,101109.77
2019-03-02T08:39:25.071Z,101106.50
2019-03-02T08:44:30.564Z,101085.91
2019-03-02T08:49:38.437Z,101104.03
2019-03-02T08:54:43.137Z,101106.63
2019-03-02T08:59:48.492Z,101112.02
2019-03-02T09:04:53.947Z,101107.38
2019-03-02T09:09:59.446Z,101102.44
2019-03-02T09:15:05.057Z,101100.77
2019-03-02T09:20:10.634Z,101094.94
2019-03-02T09:25:17.275Z,101089.17
2019-03-02T09:30:22.760Z,101079.73
2019-03-02T09:35:28.267Z,101081.36
2019-03-02T09:40:33.803Z,101079.94
2019-03-02T09:45:41.257Z,101082.47
2019-03-02T09:50:46.488Z,101073.23
2019-03-02T09:55:56.106Z,101060.64
2019-03-02T10:01:01.166Z,101057.36
2019-03-02T10:06:06.371Z,101063.08
2019-03-02T10:11:11.895Z,101058.86
2019-03-02T10:16:17.321Z,101055.77
2019-03-02T10:21:22.802Z,101059.19
2019-03-02T10:26:28.280Z,101054.75
2019-03-02T10:31:33.748Z,101055.30
2019-03-02T10:36:39.208Z,101053.92
2019-03-02T10:41:44.669Z,101048.83
2019-03-02T10:46:50.180Z,101042.34
2019-03-02T10:51:55.835Z,101031.09
2019-03-02T10:57:01.269Z,101024.83
2019-03-02T11:02:06.693Z,101024.89
2019-03-02T11:07:29.653Z,101016.98
2019-03-02T11:12:52.808Z,101010.50
2019-03-02T11:18:17.292Z,101004.58
2019-03-02T11:23:40.256Z,100993.06
2019-03-02T11:28:50.556Z,100982.50
2019-03-02T11:34:30.385Z,100975.00
2019-03-02T11:39:53.204Z,100961.25
2019-03-02T11:45:13.739Z,100953.02
2019-03-02T11:50:34.049Z,100936.88
2019-03-02T11:55:49.966Z,100934.09
2019-03-02T12:01:12.769Z,100931.75
2019-03-02T12:06:31.149Z,100929.36
2019-03-02T12:12:04.702Z,100914.48
2019-03-02T12:17:32.278Z,100900.97
2019-03-02T12:22:59.769Z,100894.25
2019-03-02T12:28:22.504Z,100888.36
2019-03-02T12:33:49.626Z,100879.05
2019-03-02T12:39:00.237Z,100870.06
2019-03-02T12:44:23.220Z,100852.55
2019-03-02T12:49:48.027Z,100857.48
2019-03-02T12:55:16.443Z,100856.69
2019-03-02T13:00:27.370Z,100850.31
2019-03-02T13:05:46.978Z,100839.00
2019-03-02T13:11:01.571Z,100836.06
2019-03-02T13:16:16.161Z,100819.66
2019-03-02T13:21:40.549Z,100818.87
2019-03-02T13:27:17.010Z,100816.72
2019-03-02T13:32:39.798Z,100814.51
2019-03-02T13:38:07.604Z,100812.73
2019-03-02T13:43:28.892Z,100807.80
2019-03-02T13:48:58.170Z,100806.17
2019-03-02T13:54:13.452Z,100800.88
2019-03-02T13:59:50.146Z,100805.82
2019-03-02T14:05:12.913Z,100799.34
2019-03-02T14:10:57.218Z,100805.64
2019-03-02T14:16:35.324Z,100788.76
2019-03-02T14:21:57.135Z,100774.25
2019-03-02T14:27:28.076Z,100774.21
2019-03-02T14:32:41.789Z,100765.50
2019-03-02T14:38:04.601Z,100769.86
2019-03-02T14:43:30.795Z,100762.55
2019-03-02T14:48:45.895Z,100754.55
2019-03-02T14:53:57.363Z,100754.71
2019-03-02T14:59:39.600Z,100759.41
2019-03-02T15:05:03.945Z,100761.66
2019-03-02T15:10:23.076Z,100762.29
2019-03-02T15:15:39.836Z,100769.92
2019-03-02T15:21:04.096Z,100761.03
2019-03-02T15:26:28.397Z,100765.24
2019-03-02T15:31:45.915Z,100754.94
2019-03-02T15:37:00.712Z,100747.72
2019-03-02T15:42:28.084Z,100748.91
2019-03-02T15:47:47.498Z,100747.21
2019-03-02T15:53:20.272Z,100755.07
2019-03-02T15:59:01.737Z,100755.31
2019-03-02T16:04:35.339Z,100749.86
2019-03-02T16:09:55.873Z,100756.84
2019-03-02T16:15:26.488Z,100756.21
2019-03-02T16:20:39.029Z,100746.19
2019-03-02T16:26:13.066Z,100758.56
2019-03-02T16:31:30.001Z,100758.85
2019-03-02T16:36:48.196Z,100761.31
2019-03-02T16:42:18.520Z,100767.92
2019-03-02T16:47:41.698Z,100776.91
2019-03-02T16:53:11.267Z,100783.22
2019-03-02T16:58:26.018Z,100790.92
2019-03-02T17:03:50.489Z,100792.99
2019-03-02T17:09:12.526Z,100797.71
2019-03-02T17:14:36.894Z,100796.99
2019-03-02T17:20:05.619Z,100794.16
2019-03-02T17:25:45.451Z,100791.02
2019-03-02T17:31:09.822Z,100787.47
2019-03-02T17:36:26.132Z,100785.87
2019-03-02T17:42:08.852Z,100789.28
2019-03-02T17:47:28.017Z,100795.88
2019-03-02T17:53:01.699Z,100791.19
2019-03-02T17:58:31.341Z,100799.80
2019-03-02T18:03:50.842Z,100800.53
2019-03-02T18:09:20.838Z,100789.31
2019-03-02T18:14:49.840Z,100804.80
2019-03-02T18:19:55.495Z,100798.57
2019-03-02T18:25:00.956Z,100796.37
2019-03-02T18:30:08.837Z,100801.64
2019-03-02T18:35:14.612Z,100802.33
2019-03-02T18:40:20.200Z,100804.47
2019-03-02T18:45:25.720Z,100807.22
2019-03-02T18:50:56.763Z,100811.16
2019-03-02T18:56:02.520Z,100813.92
2019-03-02T19:01:08.255Z,100820.80
2019-03-02T19:06:15.728Z,100819.79
2019-03-02T19:11:21.546Z,100819.91
2019-03-02T19:16:27.700Z,100821.97
2019-03-02T19:21:33.369Z,100821.53
2019-03-02T19:26:39.358Z,100826.96
2019-03-02T19:31:45.105Z,100837.78
2019-03-02T19:36:50.966Z,100844.83
2019-03-02T19:41:56.814Z,100845.47
2019-03-02T19:47:02.537Z,100842.36
2019-03-02T19:52:09.791Z,100832.67
2019-03-02T19:57:15.479Z,100824.63
2019-03-02T20:02:21.328Z,100832.30
2019-03-02T20:07:27.010Z,100835.02
2019-03-02T20:12:32.511Z,100820.83
2019-03-02T20:17:38.035Z,100820.34
2019-03-02T20:22:44.224Z,100824.23
2019-03-02T20:27:50.172Z,100817.67
2019-03-02T20:32:55.666Z,100823.34
2019-03-02T20:38:01.674Z,100818.14
2019-03-02T20:43:07.348Z,100825.06
2019-03-02T20:48:13.729Z,100832.03
2019-03-02T20:53:19.165Z,100832.73
2019-03-02T20:58:25.390Z,100831.08
2019-03-02T21:03:31.777Z,100828.82
2019-03-02T21:08:37.901Z,100823.84
2019-03-02T21:13:43.802Z,100826.92
2019-03-02T21:18:49.797Z,100830.60
2019-03-02T21:23:55.702Z,100828.55
2019-03-02T21:29:01.754Z,100827.05
2019-03-02T21:34:07.681Z,100826.97
2019-03-02T21:39:13.638Z,100825.10
2019-03-02T21:44:19.335Z,100827.50
2019-03-02T21:49:25.198Z,100822.02
2019-03-02T21:54:31.238Z,100809.53
2019-03-02T21:59:37.266Z,100802.72
2019-03-02T22:04:43.089Z,100802.31
2019-03-02T22:09:49.081Z,100792.94
2019-03-02T22:14:54.639Z,100788.63
2019-03-02T22:20:00.292Z,100790.37
2019-03-02T22:25:06.027Z,100797.91
2019-03-02T22:30:15.809Z,100802.20
2019-03-02T22:35:21.254Z,100798.20
2019-03-02T22:40:27.393Z,100792.92
2019-03-02T22:45:33.233Z,100795.27
2019-03-02T22:50:40.299Z,100791.02
2019-03-02T22:55:46.524Z,100800.85
2019-03-02T23:01:50.535Z,100793.95
2019-03-02T23:06:56.032Z,100788.64
2019-03-02T23:12:01.422Z,100789.52
2019-03-02T23:17:06.806Z,100789.81
2019-03-02T23:22:12.262Z,100774.99
2019-03-02T23:27:17.846Z,100767.77
2019-03-02T23:32:23.269Z,100762.13
2019-03-02T23:37:28.721Z,100759.52
2019-03-02T23:42:34.201Z,100756.56
2019-03-02T23:47:39.663Z,100749.58
2019-03-02T23:52:45.066Z,100749.25
2019-03-02T23:57:50.566Z,100752.49
